sensor_id;sensor_type;location;lat;lon;timestamp;temperature;humidity
23719;DHT22;43322;52.230;5.702;2023-08-01T00:01:42;16.30;99.90
23719;DHT22;43322;52.230;5.702;2023-08-01T00:04:08;16.30;99.90
23719;DHT22;43322;52.230;5.702;2023-08-01T00:06:35;16.20;99.90
23719;DHT22;43322;52.230;5.702;2023-08-01T00:09:02;16.20;99.90
23719;DHT22;43322;52.230;5.702;2023-08-01T00:11:28;16.10;99.90
23719;DHT22;43322;52.230;5.702;2023-08-01T00:13:56;16.10;99.90
23719;DHT22;43322;52.230;5.702;2023-08-01T00:16:24;16.10;99.90
23719;DHT22;43322;52.230;5.702;2023-08-01T00:18:50;16.10;99.90
23719;DHT22;43322;52.230;5.702;2023-08-01T00:21:17;16.00;99.90
23719;DHT22;43322;52.230;5.702;2023-08-01T00:23:43;16.20;99.90
23719;DHT22;43322;52.230;5.702;2023-08-01T00:26:10;16.10;99.90
23719;DHT22;43322;52.230;5.702;2023-08-01T00:28:37;16.10;99.90
23719;DHT22;43322;52.230;5.702;2023-08-01T00:31:06;16.10;99.90
23719;DHT22;43322;52.230;5.702;2023-08-01T00:33:34;16.10;99.90
23719;DHT22;43322;52.230;5.702;2023-08-01T00:36:01;16.10;99.90
23719;DHT22;43322;52.230;5.702;2023-08-01T00:38:28;16.10;99.90
23719;DHT22;43322;52.230;5.702;2023-08-01T00:40:55;16.10;99.90
23719;DHT22;43322;52.230;5.702;2023-08-01T00:43:21;16.10;99.90
23719;DHT22;43322;52.230;5.702;2023-08-01T00:45:48;16.10;99.90
23719;DHT22;43322;52.230;5.702;2023-08-01T00:48:16;16.10;99.90
23719;DHT22;43322;52.230;5.702;2023-08-01T00:50:44;16.10;99.90
23719;DHT22;43322;52.230;5.702;2023-08-01T00:53:12;16.10;99.90
23719;DHT22;43322;52.230;5.702;2023-08-01T00:55:39;16.00;99.90
23719;DHT22;43322;52.230;5.702;2023-08-01T00:58:06;16.00;99.90
23719;DHT22;43322;52.230;5.702;2023-08-01T01:00:32;16.00;99.90
23719;DHT22;43322;52.230;5.702;2023-08-01T01:02:59;15.90;99.90
23719;DHT22;43322;52.230;5.702;2023-08-01T01:05:28;15.90;99.90
23719;DHT22;43322;52.230;5.702;2023-08-01T01:07:58;15.90;99.90
23719;DHT22;43322;52.230;5.702;2023-08-01T01:10:24;15.80;99.90
23719;DHT22;43322;52.230;5.702;2023-08-01T01:12:51;15.80;99.90
23719;DHT22;43322;52.230;5.702;2023-08-01T01:15:18;15.80;99.90
23719;DHT22;43322;52.230;5.702;2023-08-01T01:17:44;15.80;99.90
23719;DHT22;43322;52.230;5.702;2023-08-01T01:20:11;15.70;99.90
23719;DHT22;43322;52.230;5.702;2023-08-01T01:22:40;15.60;99.90
23719;DHT22;43322;52.230;5.702;2023-08-01T01:25:10;15.60;99.90
23719;DHT22;43322;52.230;5.702;2023-08-01T01:27:38;15.60;99.90
23719;DHT22;43322;52.230;5.702;2023-08-01T01:30:06;15.50;99.90
23719;DHT22;43322;52.230;5.702;2023-08-01T01:32:33;15.50;99.90
23719;DHT22;43322;52.230;5.702;2023-08-01T01:35:01;15.50;99.90
23719;DHT22;43322;52.230;5.702;2023-08-01T01:37:30;15.50;99.90
23719;DHT22;43322;52.230;5.702;2023-08-01T01:39:58;15.50;99.90
23719;DHT22;43322;52.230;5.702;2023-08-01T01:42:25;15.50;99.90
23719;DHT22;43322;52.230;5.702;2023-08-01T01:44:51;15.50;99.90
23719;DHT22;43322;52.230;5.702;2023-08-01T01:47:18;15.40;99.90
23719;DHT22;43322;52.230;5.702;2023-08-01T01:49:45;15.40;99.90
23719;DHT22;43322;52.230;5.702;2023-08-01T01:52:11;15.30;99.90
23719;DHT22;43322;52.230;5.702;2023-08-01T01:54:38;15.30;99.90
23719;DHT22;43322;52.230;5.702;2023-08-01T01:57:06;15.30;99.90
23719;DHT22;43322;52.230;5.702;2023-08-01T01:59:33;15.30;99.90
23719;DHT22;43322;52.230;5.702;2023-08-01T02:01:59;15.40;99.90
23719;DHT22;43322;52.230;5.702;2023-08-01T02:04:26;15.30;99.90
23719;DHT22;43322;52.230;5.702;2023-08-01T02:06:53;15.20;99.90
23719;DHT22;43322;52.230;5.702;2023-08-01T02:09:20;15.20;99.90
23719;DHT22;43322;52.230;5.702;2023-08-01T02:11:46;15.20;99.90
23719;DHT22;43322;52.230;5.702;2023-08-01T02:14:15;15.20;99.90
23719;DHT22;43322;52.230;5.702;2023-08-01T02:16:42;15.20;99.90
23719;DHT22;43322;52.230;5.702;2023-08-01T02:19:08;15.20;99.90
23719;DHT22;43322;52.230;5.702;2023-08-01T02:21:35;15.20;99.90
23719;DHT22;43322;52.230;5.702;2023-08-01T02:24:02;15.20;99.90
23719;DHT22;43322;52.230;5.702;2023-08-01T02:26:29;15.20;99.90
23719;DHT22;43322;52.230;5.702;2023-08-01T02:28:55;15.10;99.90
23719;DHT22;43322;52.230;5.702;2023-08-01T02:31:23;15.10;99.90
23719;DHT22;43322;52.230;5.702;2023-08-01T02:33:50;15.10;99.90
23719;DHT22;43322;52.230;5.702;2023-08-01T02:36:16;15.10;99.90
23719;DHT22;43322;52.230;5.702;2023-08-01T02:38:43;15.10;99.90
23719;DHT22;43322;52.230;5.702;2023-08-01T02:41:10;15.10;99.90
23719;DHT22;43322;52.230;5.702;2023-08-01T02:43:37;15.10;99.90
23719;DHT22;43322;52.230;5.702;2023-08-01T02:46:03;15.10;99.90
23719;DHT22;43322;52.230;5.702;2023-08-01T02:48:32;15.10;99.90
23719;DHT22;43322;52.230;5.702;2023-08-01T02:51:00;15.00;99.90
23719;DHT22;43322;52.230;5.702;2023-08-01T02:53:27;15.00;99.90
23719;DHT22;43322;52.230;5.702;2023-08-01T02:55:54;15.10;99.90
23719;DHT22;43322;52.230;5.702;2023-08-01T02:58:20;15.00;99.90
23719;DHT22;43322;52.230;5.702;2023-08-01T03:00:47;15.10;99.90
23719;DHT22;43322;52.230;5.702;2023-08-01T03:03:14;15.10;99.90
23719;DHT22;43322;52.230;5.702;2023-08-01T03:05:42;15.10;99.90
23719;DHT22;43322;52.230;5.702;2023-08-01T03:08:09;15.10;99.90
23719;DHT22;43322;52.230;5.702;2023-08-01T03:10:35;15.20;99.90
23719;DHT22;43322;52.230;5.702;2023-08-01T03:13:02;15.30;99.90
23719;DHT22;43322;52.230;5.702;2023-08-01T03:15:29;15.30;99.90
23719;DHT22;43322;52.230;5.702;2023-08-01T03:17:55;15.30;99.90
23719;DHT22;43322;52.230;5.702;2023-08-01T03:20:22;15.40;99.90
23719;DHT22;43322;52.230;5.702;2023-08-01T03:22:50;15.30;99.90
23719;DHT22;43322;52.230;5.702;2023-08-01T03:25:17;15.40;99.90
23719;DHT22;43322;52.230;5.702;2023-08-01T03:27:43;15.30;99.90
23719;DHT22;43322;52.230;5.702;2023-08-01T03:30:10;15.30;99.90
23719;DHT22;43322;52.230;5.702;2023-08-01T03:32:37;15.30;99.90
23719;DHT22;43322;52.230;5.702;2023-08-01T03:35:04;15.20;99.90
23719;DHT22;43322;52.230;5.702;2023-08-01T03:37:31;15.30;99.90
23719;DHT22;43322;52.230;5.702;2023-08-01T03:39:59;15.20;99.90
23719;DHT22;43322;52.230;5.702;2023-08-01T03:42:26;15.30;99.90
23719;DHT22;43322;52.230;5.702;2023-08-01T03:44:52;15.30;99.90
23719;DHT22;43322;52.230;5.702;2023-08-01T03:47:19;15.30;99.90
23719;DHT22;43322;52.230;5.702;2023-08-01T03:49:45;15.30;99.90
23719;DHT22;43322;52.230;5.702;2023-08-01T03:52:12;15.40;99.90
23719;DHT22;43322;52.230;5.702;2023-08-01T03:54:39;15.40;99.90
23719;DHT22;43322;52.230;5.702;2023-08-01T03:57:07;15.40;99.90
23719;DHT22;43322;52.230;5.702;2023-08-01T03:59:34;15.40;99.90
23719;DHT22;43322;52.230;5.702;2023-08-01T04:02:00;15.40;99.90
23719;DHT22;43322;52.230;5.702;2023-08-01T04:04:27;15.30;99.90
23719;DHT22;43322;52.230;5.702;2023-08-01T04:06:53;15.30;99.90
23719;DHT22;43322;52.230;5.702;2023-08-01T04:09:20;15.30;99.90
23719;DHT22;43322;52.230;5.702;2023-08-01T04:11:47;15.40;99.90
23719;DHT22;43322;52.230;5.702;2023-08-01T04:14:15;15.40;99.90
23719;DHT22;43322;52.230;5.702;2023-08-01T04:16:41;15.30;99.90
23719;DHT22;43322;52.230;5.702;2023-08-01T04:19:08;15.30;99.90
23719;DHT22;43322;52.230;5.702;2023-08-01T04:21:35;15.30;99.90
23719;DHT22;43322;52.230;5.702;2023-08-01T04:24:01;15.20;99.90
23719;DHT22;43322;52.230;5.702;2023-08-01T04:26:28;15.20;99.90
23719;DHT22;43322;52.230;5.702;2023-08-01T04:28:55;15.30;99.90
23719;DHT22;43322;52.230;5.702;2023-08-01T04:31:23;15.20;99.90
23719;DHT22;43322;52.230;5.702;2023-08-01T04:33:49;15.20;99.90
23719;DHT22;43322;52.230;5.702;2023-08-01T04:36:16;15.20;99.90
23719;DHT22;43322;52.230;5.702;2023-08-01T04:38:43;15.20;99.90
23719;DHT22;43322;52.230;5.702;2023-08-01T04:41:10;15.20;99.90
23719;DHT22;43322;52.230;5.702;2023-08-01T04:43:36;15.20;99.90
23719;DHT22;43322;52.230;5.702;2023-08-01T04:46:03;15.10;99.90
23719;DHT22;43322;52.230;5.702;2023-08-01T04:48:31;15.10;99.90
23719;DHT22;43322;52.230;5.702;2023-08-01T04:50:58;15.10;99.90
23719;DHT22;43322;52.230;5.702;2023-08-01T04:53:24;15.10;99.90
23719;DHT22;43322;52.230;5.702;2023-08-01T04:55:51;15.10;99.90
23719;DHT22;43322;52.230;5.702;2023-08-01T04:58:18;15.20;99.90
23719;DHT22;43322;52.230;5.702;2023-08-01T05:00:44;15.20;99.90
23719;DHT22;43322;52.230;5.702;2023-08-01T05:03:11;15.30;99.90
23719;DHT22;43322;52.230;5.702;2023-08-01T05:05:39;15.20;99.90
23719;DHT22;43322;52.230;5.702;2023-08-01T05:08:06;15.30;99.90
23719;DHT22;43322;52.230;5.702;2023-08-01T05:10:32;15.20;99.90
23719;DHT22;43322;52.230;5.702;2023-08-01T05:12:59;15.20;99.90
23719;DHT22;43322;52.230;5.702;2023-08-01T05:15:25;15.30;99.90
23719;DHT22;43322;52.230;5.702;2023-08-01T05:17:52;15.30;99.90
23719;DHT22;43322;52.230;5.702;2023-08-01T05:20:19;15.40;99.90
23719;DHT22;43322;52.230;5.702;2023-08-01T05:22:47;15.60;99.90
23719;DHT22;43322;52.230;5.702;2023-08-01T05:25:14;15.60;99.90
23719;DHT22;43322;52.230;5.702;2023-08-01T05:27:41;15.60;99.90
23719;DHT22;43322;52.230;5.702;2023-08-01T05:30:10;15.70;99.90
23719;DHT22;43322;52.230;5.702;2023-08-01T05:32:37;15.80;99.90
23719;DHT22;43322;52.230;5.702;2023-08-01T05:35:06;15.80;99.90
23719;DHT22;43322;52.230;5.702;2023-08-01T05:37:33;15.80;99.90
23719;DHT22;43322;52.230;5.702;2023-08-01T05:40:01;15.80;99.90
23719;DHT22;43322;52.230;5.702;2023-08-01T05:42:28;15.80;99.90
23719;DHT22;43322;52.230;5.702;2023-08-01T05:44:54;15.80;99.90
23719;DHT22;43322;52.230;5.702;2023-08-01T05:47:21;15.80;99.90
23719;DHT22;43322;52.230;5.702;2023-08-01T05:49:48;15.80;99.90
23719;DHT22;43322;52.230;5.702;2023-08-01T05:52:15;15.80;99.90
23719;DHT22;43322;52.230;5.702;2023-08-01T05:54:42;15.80;99.90
23719;DHT22;43322;52.230;5.702;2023-08-01T05:57:10;15.80;99.90
23719;DHT22;43322;52.230;5.702;2023-08-01T05:59:36;15.80;99.90
23719;DHT22;43322;52.230;5.702;2023-08-01T06:02:03;15.80;99.90
23719;DHT22;43322;52.230;5.702;2023-08-01T06:04:30;15.80;99.90
23719;DHT22;43322;52.230;5.702;2023-08-01T06:06:57;15.90;99.90
23719;DHT22;43322;52.230;5.702;2023-08-01T06:09:24;16.00;99.90
23719;DHT22;43322;52.230;5.702;2023-08-01T06:11:51;16.10;99.90
23719;DHT22;43322;52.230;5.702;2023-08-01T06:14:19;16.20;99.90
23719;DHT22;43322;52.230;5.702;2023-08-01T06:16:45;16.20;99.90
23719;DHT22;43322;52.230;5.702;2023-08-01T06:19:12;16.40;99.90
23719;DHT22;43322;52.230;5.702;2023-08-01T06:21:38;16.40;99.90
23719;DHT22;43322;52.230;5.702;2023-08-01T06:24:05;16.50;99.90
23719;DHT22;43322;52.230;5.702;2023-08-01T06:26:33;16.40;99.90
23719;DHT22;43322;52.230;5.702;2023-08-01T06:28:59;16.50;99.90
23719;DHT22;43322;52.230;5.702;2023-08-01T06:31:27;16.40;99.90
23719;DHT22;43322;52.230;5.702;2023-08-01T06:33:54;16.50;99.90
23719;DHT22;43322;52.230;5.702;2023-08-01T06:36:21;16.50;99.90
23719;DHT22;43322;52.230;5.702;2023-08-01T06:38:48;16.60;99.90
23719;DHT22;43322;52.230;5.702;2023-08-01T06:41:14;16.60;99.90
23719;DHT22;43322;52.230;5.702;2023-08-01T06:43:41;16.60;99.90
23719;DHT22;43322;52.230;5.702;2023-08-01T06:46:08;16.70;99.90
23719;DHT22;43322;52.230;5.702;2023-08-01T06:48:36;16.80;99.90
23719;DHT22;43322;52.230;5.702;2023-08-01T06:51:03;16.90;99.90
23719;DHT22;43322;52.230;5.702;2023-08-01T06:53:29;16.80;99.90
23719;DHT22;43322;52.230;5.702;2023-08-01T06:55:56;16.70;99.90
23719;DHT22;43322;52.230;5.702;2023-08-01T06:58:23;16.60;99.90
23719;DHT22;43322;52.230;5.702;2023-08-01T07:00:49;16.50;99.90
23719;DHT22;43322;52.230;5.702;2023-08-01T07:03:17;16.40;99.90
23719;DHT22;43322;52.230;5.702;2023-08-01T07:05:45;16.50;99.90
23719;DHT22;43322;52.230;5.702;2023-08-01T07:08:11;16.60;99.90
23719;DHT22;43322;52.230;5.702;2023-08-01T07:10:38;16.60;99.90
23719;DHT22;43322;52.230;5.702;2023-08-01T07:13:05;16.70;99.90
23719;DHT22;43322;52.230;5.702;2023-08-01T07:15:31;16.80;99.90
23719;DHT22;43322;52.230;5.702;2023-08-01T07:17:58;16.90;99.90
23719;DHT22;43322;52.230;5.702;2023-08-01T07:20:25;16.80;99.90
23719;DHT22;43322;52.230;5.702;2023-08-01T07:22:53;17.00;99.90
23719;DHT22;43322;52.230;5.702;2023-08-01T07:25:19;17.20;99.90
23719;DHT22;43322;52.230;5.702;2023-08-01T07:27:47;17.30;99.90
23719;DHT22;43322;52.230;5.702;2023-08-01T07:30:14;17.30;99.90
23719;DHT22;43322;52.230;5.702;2023-08-01T07:32:40;17.50;99.90
23719;DHT22;43322;52.230;5.702;2023-08-01T07:35:09;17.70;99.90
23719;DHT22;43322;52.230;5.702;2023-08-01T07:37:36;17.70;99.90
23719;DHT22;43322;52.230;5.702;2023-08-01T07:40:05;17.60;99.90
23719;DHT22;43322;52.230;5.702;2023-08-01T07:42:31;17.50;99.90
23719;DHT22;43322;52.230;5.702;2023-08-01T07:44:58;17.50;99.90
23719;DHT22;43322;52.230;5.702;2023-08-01T07:47:25;17.50;99.90
23719;DHT22;43322;52.230;5.702;2023-08-01T07:49:52;17.70;99.90
23719;DHT22;43322;52.230;5.702;2023-08-01T07:52:18;17.70;99.90
23719;DHT22;43322;52.230;5.702;2023-08-01T07:54:45;18.00;99.90
23719;DHT22;43322;52.230;5.702;2023-08-01T07:57:13;17.80;99.90
23719;DHT22;43322;52.230;5.702;2023-08-01T07:59:40;17.50;99.90
23719;DHT22;43322;52.230;5.702;2023-08-01T08:02:06;17.50;99.90
23719;DHT22;43322;52.230;5.702;2023-08-01T08:04:33;17.30;99.90
23719;DHT22;43322;52.230;5.702;2023-08-01T08:07:00;17.20;99.90
23719;DHT22;43322;52.230;5.702;2023-08-01T08:09:26;17.10;99.90
23719;DHT22;43322;52.230;5.702;2023-08-01T08:11:53;17.30;99.90
23719;DHT22;43322;52.230;5.702;2023-08-01T08:14:24;17.20;99.90
23719;DHT22;43322;52.230;5.702;2023-08-01T08:16:51;17.20;99.90
23719;DHT22;43322;52.230;5.702;2023-08-01T08:19:17;17.20;99.90
23719;DHT22;43322;52.230;5.702;2023-08-01T08:21:44;17.10;99.90
23719;DHT22;43322;52.230;5.702;2023-08-01T08:24:11;17.10;99.90
23719;DHT22;43322;52.230;5.702;2023-08-01T08:26:37;17.10;99.90
23719;DHT22;43322;52.230;5.702;2023-08-01T08:29:05;17.00;99.90
23719;DHT22;43322;52.230;5.702;2023-08-01T08:31:33;17.30;99.90
23719;DHT22;43322;52.230;5.702;2023-08-01T08:33:59;17.70;99.90
23719;DHT22;43322;52.230;5.702;2023-08-01T08:36:26;18.00;99.90
23719;DHT22;43322;52.230;5.702;2023-08-01T08:38:53;18.00;99.90
23719;DHT22;43322;52.230;5.702;2023-08-01T08:41:21;17.90;99.90
23719;DHT22;43322;52.230;5.702;2023-08-01T08:43:48;17.60;99.90
23719;DHT22;43322;52.230;5.702;2023-08-01T08:46:15;17.50;99.90
23719;DHT22;43322;52.230;5.702;2023-08-01T08:48:44;17.40;99.90
23719;DHT22;43322;52.230;5.702;2023-08-01T08:51:12;17.40;99.90
23719;DHT22;43322;52.230;5.702;2023-08-01T08:53:40;17.70;99.90
23719;DHT22;43322;52.230;5.702;2023-08-01T08:56:08;18.20;99.90
23719;DHT22;43322;52.230;5.702;2023-08-01T08:58:36;18.40;99.90
23719;DHT22;43322;52.230;5.702;2023-08-01T09:01:06;18.80;99.90
23719;DHT22;43322;52.230;5.702;2023-08-01T09:03:33;19.20;99.90
23719;DHT22;43322;52.230;5.702;2023-08-01T09:06:04;19.30;99.90
23719;DHT22;43322;52.230;5.702;2023-08-01T09:08:35;19.50;99.90
23719;DHT22;43322;52.230;5.702;2023-08-01T09:11:02;19.20;99.90
23719;DHT22;43322;52.230;5.702;2023-08-01T09:13:29;19.30;99.90
23719;DHT22;43322;52.230;5.702;2023-08-01T09:15:57;19.20;99.90
23719;DHT22;43322;52.230;5.702;2023-08-01T09:18:24;19.30;99.90
23719;DHT22;43322;52.230;5.702;2023-08-01T09:20:50;19.00;99.90
23719;DHT22;43322;52.230;5.702;2023-08-01T09:23:18;18.40;99.90
23719;DHT22;43322;52.230;5.702;2023-08-01T09:25:45;18.10;99.90
23719;DHT22;43322;52.230;5.702;2023-08-01T09:28:16;17.90;99.90
23719;DHT22;43322;52.230;5.702;2023-08-01T09:30:47;18.10;99.90
23719;DHT22;43322;52.230;5.702;2023-08-01T09:33:14;18.30;99.90
23719;DHT22;43322;52.230;5.702;2023-08-01T09:35:41;18.30;99.90
23719;DHT22;43322;52.230;5.702;2023-08-01T09:38:10;18.60;99.90
23719;DHT22;43322;52.230;5.702;2023-08-01T09:40:39;18.80;99.90
23719;DHT22;43322;52.230;5.702;2023-08-01T09:43:05;19.20;99.90
23719;DHT22;43322;52.230;5.702;2023-08-01T09:45:32;19.30;99.90
23719;DHT22;43322;52.230;5.702;2023-08-01T09:47:59;19.70;99.90
23719;DHT22;43322;52.230;5.702;2023-08-01T09:50:26;20.10;99.90
23719;DHT22;43322;52.230;5.702;2023-08-01T09:52:53;20.40;99.90
23719;DHT22;43322;52.230;5.702;2023-08-01T09:55:26;20.10;99.90
23719;DHT22;43322;52.230;5.702;2023-08-01T09:57:57;20.00;99.90
23719;DHT22;43322;52.230;5.702;2023-08-01T10:00:25;20.00;99.90
23719;DHT22;43322;52.230;5.702;2023-08-01T10:02:52;19.60;99.90
23719;DHT22;43322;52.230;5.702;2023-08-01T10:05:21;19.50;99.90
23719;DHT22;43322;52.230;5.702;2023-08-01T10:07:49;19.60;99.90
23719;DHT22;43322;52.230;5.702;2023-08-01T10:10:17;20.10;99.90
23719;DHT22;43322;52.230;5.702;2023-08-01T10:12:45;20.80;99.90
23719;DHT22;43322;52.230;5.702;2023-08-01T10:15:15;21.40;99.90
23719;DHT22;43322;52.230;5.702;2023-08-01T10:17:42;20.90;99.90
23719;DHT22;43322;52.230;5.702;2023-08-01T10:20:10;20.20;99.90
23719;DHT22;43322;52.230;5.702;2023-08-01T10:22:39;20.20;99.90
23719;DHT22;43322;52.230;5.702;2023-08-01T10:25:07;20.40;99.90
23719;DHT22;43322;52.230;5.702;2023-08-01T10:27:35;19.80;99.90
23719;DHT22;43322;52.230;5.702;2023-08-01T10:30:04;20.00;99.90
23719;DHT22;43322;52.230;5.702;2023-08-01T10:32:34;20.00;99.90
23719;DHT22;43322;52.230;5.702;2023-08-01T10:35:01;21.00;99.90
23719;DHT22;43322;52.230;5.702;2023-08-01T10:37:39;22.20;99.90
23719;DHT22;43322;52.230;5.702;2023-08-01T10:40:07;23.30;99.90
23719;DHT22;43322;52.230;5.702;2023-08-01T10:42:40;23.50;99.90
23719;DHT22;43322;52.230;5.702;2023-08-01T10:45:19;23.30;99.90
23719;DHT22;43322;52.230;5.702;2023-08-01T10:47:47;23.60;99.90
23719;DHT22;43322;52.230;5.702;2023-08-01T10:50:14;23.60;99.90
23719;DHT22;43322;52.230;5.702;2023-08-01T10:52:42;23.70;99.90
23719;DHT22;43322;52.230;5.702;2023-08-01T10:55:09;23.00;99.90
23719;DHT22;43322;52.230;5.702;2023-08-01T10:57:37;23.60;99.90
23719;DHT22;43322;52.230;5.702;2023-08-01T11:00:05;24.50;99.90
23719;DHT22;43322;52.230;5.702;2023-08-01T11:02:35;25.40;99.90
23719;DHT22;43322;52.230;5.702;2023-08-01T11:05:05;24.30;99.90
23719;DHT22;43322;52.230;5.702;2023-08-01T11:07:33;23.00;99.90
23719;DHT22;43322;52.230;5.702;2023-08-01T11:10:07;22.40;99.90
23719;DHT22;43322;52.230;5.702;2023-08-01T11:12:36;21.90;99.90
23719;DHT22;43322;52.230;5.702;2023-08-01T11:15:04;22.90;99.90
23719;DHT22;43322;52.230;5.702;2023-08-01T11:17:33;22.60;99.90
23719;DHT22;43322;52.230;5.702;2023-08-01T11:20:03;22.20;99.90
23719;DHT22;43322;52.230;5.702;2023-08-01T11:22:30;21.80;99.90
23719;DHT22;43322;52.230;5.702;2023-08-01T11:24:57;21.30;99.90
23719;DHT22;43322;52.230;5.702;2023-08-01T11:27:24;21.00;99.90
23719;DHT22;43322;52.230;5.702;2023-08-01T11:29:51;20.70;99.90
23719;DHT22;43322;52.230;5.702;2023-08-01T11:32:18;20.80;99.90
23719;DHT22;43322;52.230;5.702;2023-08-01T11:34:45;20.70;99.90
23719;DHT22;43322;52.230;5.702;2023-08-01T11:37:15;20.40;99.90
23719;DHT22;43322;52.230;5.702;2023-08-01T11:39:42;20.20;99.90
23719;DHT22;43322;52.230;5.702;2023-08-01T11:42:14;20.70;99.90
23719;DHT22;43322;52.230;5.702;2023-08-01T11:44:41;21.70;99.90
23719;DHT22;43322;52.230;5.702;2023-08-01T11:47:11;22.00;99.90
23719;DHT22;43322;52.230;5.702;2023-08-01T11:49:38;21.50;99.90
23719;DHT22;43322;52.230;5.702;2023-08-01T11:52:06;20.90;99.90
23719;DHT22;43322;52.230;5.702;2023-08-01T11:54:44;20.30;99.90
23719;DHT22;43322;52.230;5.702;2023-08-01T11:57:10;21.30;99.90
23719;DHT22;43322;52.230;5.702;2023-08-01T11:59:46;21.00;99.90
23719;DHT22;43322;52.230;5.702;2023-08-01T12:02:21;20.60;99.90
23719;DHT22;43322;52.230;5.702;2023-08-01T12:04:48;20.30;99.90
23719;DHT22;43322;52.230;5.702;2023-08-01T12:07:15;20.40;99.90
23719;DHT22;43322;52.230;5.702;2023-08-01T12:09:44;21.10;99.90
23719;DHT22;43322;52.230;5.702;2023-08-01T12:12:11;22.10;99.90
23719;DHT22;43322;52.230;5.702;2023-08-01T12:14:41;21.50;99.90
23719;DHT22;43322;52.230;5.702;2023-08-01T12:17:08;20.80;99.90
23719;DHT22;43322;52.230;5.702;2023-08-01T12:19:34;20.00;99.90
23719;DHT22;43322;52.230;5.702;2023-08-01T12:22:01;20.50;99.90
23719;DHT22;43322;52.230;5.702;2023-08-01T12:24:28;20.70;99.90
23719;DHT22;43322;52.230;5.702;2023-08-01T12:26:57;21.60;99.90
23719;DHT22;43322;52.230;5.702;2023-08-01T12:29:24;21.40;99.90
23719;DHT22;43322;52.230;5.702;2023-08-01T12:31:50;21.70;99.90
23719;DHT22;43322;52.230;5.702;2023-08-01T12:34:17;22.20;99.90
23719;DHT22;43322;52.230;5.702;2023-08-01T12:36:43;22.60;99.90
23719;DHT22;43322;52.230;5.702;2023-08-01T12:39:11;23.00;99.90
23719;DHT22;43322;52.230;5.702;2023-08-01T12:41:37;23.90;99.90
23719;DHT22;43322;52.230;5.702;2023-08-01T12:44:05;23.10;99.90
23719;DHT22;43322;52.230;5.702;2023-08-01T12:46:32;21.80;99.90
23719;DHT22;43322;52.230;5.702;2023-08-01T12:48:59;21.00;99.90
23719;DHT22;43322;52.230;5.702;2023-08-01T12:51:25;21.40;99.90
23719;DHT22;43322;52.230;5.702;2023-08-01T12:53:52;23.00;99.90
23719;DHT22;43322;52.230;5.702;2023-08-01T12:56:19;23.30;99.90
23719;DHT22;43322;52.230;5.702;2023-08-01T12:58:45;23.30;99.90
23719;DHT22;43322;52.230;5.702;2023-08-01T13:01:13;23.40;99.90
23719;DHT22;43322;52.230;5.702;2023-08-01T13:03:40;24.10;99.90
23719;DHT22;43322;52.230;5.702;2023-08-01T13:06:09;24.60;99.90
23719;DHT22;43322;52.230;5.702;2023-08-01T13:08:36;24.10;99.90
23719;DHT22;43322;52.230;5.702;2023-08-01T13:11:09;23.70;99.90
23719;DHT22;43322;52.230;5.702;2023-08-01T13:13:36;23.50;99.90
23719;DHT22;43322;52.230;5.702;2023-08-01T13:16:03;22.90;99.90
23719;DHT22;43322;52.230;5.702;2023-08-01T13:18:31;22.00;99.90
23719;DHT22;43322;52.230;5.702;2023-08-01T13:20:58;22.80;99.90
23719;DHT22;43322;52.230;5.702;2023-08-01T13:23:25;23.50;99.90
23719;DHT22;43322;52.230;5.702;2023-08-01T13:25:51;24.00;99.90
23719;DHT22;43322;52.230;5.702;2023-08-01T13:28:18;23.10;99.90
23719;DHT22;43322;52.230;5.702;2023-08-01T13:30:45;21.90;99.90
23719;DHT22;43322;52.230;5.702;2023-08-01T13:33:11;21.00;99.90
23719;DHT22;43322;52.230;5.702;2023-08-01T13:35:39;20.10;99.90
23719;DHT22;43322;52.230;5.702;2023-08-01T13:38:06;19.60;99.90
23719;DHT22;43322;52.230;5.702;2023-08-01T13:40:33;19.20;99.90
23719;DHT22;43322;52.230;5.702;2023-08-01T13:43:00;19.00;99.90
23719;DHT22;43322;52.230;5.702;2023-08-01T13:45:30;18.80;99.90
23719;DHT22;43322;52.230;5.702;2023-08-01T13:47:56;18.90;99.90
23719;DHT22;43322;52.230;5.702;2023-08-01T13:50:24;18.90;99.90
23719;DHT22;43322;52.230;5.702;2023-08-01T13:52:53;19.10;99.90
23719;DHT22;43322;52.230;5.702;2023-08-01T13:55:19;19.40;99.90
23719;DHT22;43322;52.230;5.702;2023-08-01T13:57:46;19.80;99.90
23719;DHT22;43322;52.230;5.702;2023-08-01T14:00:13;20.10;99.90
23719;DHT22;43322;52.230;5.702;2023-08-01T14:02:40;20.40;99.90
23719;DHT22;43322;52.230;5.702;2023-08-01T14:05:07;21.10;99.90
23719;DHT22;43322;52.230;5.702;2023-08-01T14:07:35;21.30;99.90
23719;DHT22;43322;52.230;5.702;2023-08-01T14:10:03;21.20;99.90
23719;DHT22;43322;52.230;5.702;2023-08-01T14:12:30;20.80;99.90
23719;DHT22;43322;52.230;5.702;2023-08-01T14:14:56;20.40;99.90
23719;DHT22;43322;52.230;5.702;2023-08-01T14:17:23;20.30;99.90
23719;DHT22;43322;52.230;5.702;2023-08-01T14:19:50;20.00;99.90
23719;DHT22;43322;52.230;5.702;2023-08-01T14:22:16;19.60;99.90
23719;DHT22;43322;52.230;5.702;2023-08-01T14:24:43;19.40;99.90
23719;DHT22;43322;52.230;5.702;2023-08-01T14:27:11;19.10;99.90
23719;DHT22;43322;52.230;5.702;2023-08-01T14:29:38;18.70;99.90
23719;DHT22;43322;52.230;5.702;2023-08-01T14:32:05;18.70;99.90
23719;DHT22;43322;52.230;5.702;2023-08-01T14:34:32;18.80;99.90
23719;DHT22;43322;52.230;5.702;2023-08-01T14:36:59;18.90;99.90
23719;DHT22;43322;52.230;5.702;2023-08-01T14:39:25;18.70;99.90
23719;DHT22;43322;52.230;5.702;2023-08-01T14:41:52;18.60;99.90
23719;DHT22;43322;52.230;5.702;2023-08-01T14:44:20;18.60;99.90
23719;DHT22;43322;52.230;5.702;2023-08-01T14:46:47;18.50;99.90
23719;DHT22;43322;52.230;5.702;2023-08-01T14:49:13;18.30;99.90
23719;DHT22;43322;52.230;5.702;2023-08-01T14:51:40;18.40;99.90
23719;DHT22;43322;52.230;5.702;2023-08-01T14:54:07;18.70;99.90
23719;DHT22;43322;52.230;5.702;2023-08-01T14:56:34;18.90;99.90
23719;DHT22;43322;52.230;5.702;2023-08-01T14:59:01;19.20;99.90
23719;DHT22;43322;52.230;5.702;2023-08-01T15:01:29;19.60;99.90
23719;DHT22;43322;52.230;5.702;2023-08-01T15:03:55;20.50;99.90
23719;DHT22;43322;52.230;5.702;2023-08-01T15:06:22;20.60;99.90
23719;DHT22;43322;52.230;5.702;2023-08-01T15:08:49;20.20;99.90
23719;DHT22;43322;52.230;5.702;2023-08-01T15:11:16;19.80;99.90
23719;DHT22;43322;52.230;5.702;2023-08-01T15:13:43;19.70;99.90
23719;DHT22;43322;52.230;5.702;2023-08-01T15:16:10;18.90;99.90
23719;DHT22;43322;52.230;5.702;2023-08-01T15:18:38;18.60;99.90
23719;DHT22;43322;52.230;5.702;2023-08-01T15:21:05;18.20;99.90
23719;DHT22;43322;52.230;5.702;2023-08-01T15:23:31;17.80;99.90
23719;DHT22;43322;52.230;5.702;2023-08-01T15:25:58;17.50;99.90
23719;DHT22;43322;52.230;5.702;2023-08-01T15:28:26;17.30;99.90
23719;DHT22;43322;52.230;5.702;2023-08-01T15:31:02;17.20;99.90